FA59 weather

Nitv Heliport
Wellington, Florida, United States

Public forecast

Using degrees Fahrenheit for public forecast. Weather courtesy of forecast.io.

Closest aviation weather report (METAR) to Nitv Heliport

Closest report is Palm Beach International Airport, 7.5 nm (13.9 km) ENE. Retrieved 2020/07/04 15:53 UTC (10 minutes ago):

KPBI 041553Z VRB03KT 10SM FEW031 BKN250 32/21 A2999 RMK AO2 SLP153 T03220206

Closest aviation forecast (TAF) to Nitv Heliport

Closest forecast is Palm Beach International Airport, 7.5 nm (13.9 km) ENE. Retrieved 2020/07/04 12:26 UTC (4 hours ago):

TAF KPBI 041120Z 0412/0512 VRB06KT P6SM SCT040 SCT250 FM041700 16010KT P6SM SCT035 SCT250 FM042000 14011KT P6SM VCTS SCT030CB BKN060 BKN250 FM050000 21007KT P6SM SCT035 SCT070 BKN250 FM050300 VRB04KT P6SM FEW040 SCT250